CheckWX is a tool to help pilots better visualize weather data.  It is not intended as a substitute for an official pre-flight weather briefing.

12:44:11 UTC

KJNX METAR
Johnston Regional Airport
Smithfield, North Carolina, USA
Current

24 mins ago

KJNX 161220Z AUTO 21003KT 10SM CLR 22/21 A3008 RMK AO2
Observed
Jun-16 @ 12:20 UTC
Wind
  • 210° at 3 KTS
Visibility
10 SM
Flight Rules
VFR
Cloud Levels
  • Clear skies
Temperature
22°C / 72°F
Dewpoint
21°C / 70°F
Humidity
94%
Altimeter
30.08" Hg
Pressure
1018.62 hPa
Previous

44 mins ago

KJNX 161200Z AUTO 22005KT 10SM CLR 21/21 A3007 RMK AO2
Observed
Jun-16 @ 12:00 UTC
Wind
  • 220° at 5 KTS
Visibility
10 SM
Flight Rules
VFR
Cloud Levels
  • Clear skies
Temperature
21°C / 70°F
Dewpoint
21°C / 70°F
Humidity
100%
Altimeter
30.07" Hg
Pressure
1018.32 hPa
Previous

1 hour ago

KJNX 161140Z AUTO 00000KT 10SM CLR 20/20 A3007 RMK AO2
Observed
Jun-16 @ 11:40 UTC
Visibility
10 SM
Flight Rules
VFR
Cloud Levels
  • Clear skies
Temperature
20°C / 68°F
Dewpoint
20°C / 68°F
Humidity
100%
Altimeter
30.07" Hg
Pressure
1018.32 hPa